Time;durP1;ratioP1;P1;durP2;ratioP2;P2;SDS_P1;SDS_P2;PMS_P1;PMS_P2;Temp;Humidity;BMP_temperature;BMP_pressure;BME280_temperature;BME280_humidity;BME280_pressure;Samples;Min_cycle;Max_cycle;Signal;HPM_P1;HPM_P2
2021/09/24 00:01:10;;;;;;;27.95;18.85;;;;;;;;;;5014157;28;20523;-63
2021/09/24 00:03:37;;;;;;;21.52;17.75;;;;;;;;;;5014229;28;20033;-63
2021/09/24 00:06:03;;;;;;;25.17;17.35;;;;;;;;;;5031756;28;20026;-64
2021/09/24 00:08:30;;;;;;;23.58;18.27;;;;;;;;;;5013583;28;20108;-64
2021/09/24 00:10:56;;;;;;;22.15;17.42;;;;;;;;;;5013887;28;20373;-64
2021/09/24 00:13:22;;;;;;;23.33;17.55;;;;;;;;;;5031470;28;20417;-64
2021/09/24 00:15:48;;;;;;;24.30;17.98;;;;;;;;;;5031342;28;20017;-63
2021/09/24 00:18:14;;;;;;;23.65;17.98;;;;;;;;;;5031406;28;20065;-63
2021/09/24 00:20:40;;;;;;;22.50;17.88;;;;;;;;;;5031439;28;20022;-64
2021/09/24 00:23:06;;;;;;;22.20;17.27;;;;;;;;;;5031339;28;20028;-64
2021/09/24 00:25:32;;;;;;;27.35;18.00;;;;;;;;;;5031022;28;20048;-64
2021/09/24 00:27:59;;;;;;;24.38;17.23;;;;;;;;;;5031248;28;20397;-64
2021/09/24 00:30:26;;;;;;;22.88;16.30;;;;;;;;;;5013121;28;20029;-64
2021/09/24 00:32:52;;;;;;;22.95;17.77;;;;;;;;;;5031055;28;20034;-64
2021/09/24 00:35:18;;;;;;;24.40;18.25;;;;;;;;;;5013433;28;20386;-63
2021/09/24 00:37:44;;;;;;;22.33;16.83;;;;;;;;;;5013376;28;20029;-63
2021/09/24 00:40:10;;;;;;;24.92;17.55;;;;;;;;;;5030312;28;20025;-64
2021/09/24 00:42:37;;;;;;;21.83;17.27;;;;;;;;;;5013409;28;20026;-63
2021/09/24 00:45:04;;;;;;;24.95;17.15;;;;;;;;;;5030957;28;20396;-64
2021/09/24 00:47:30;;;;;;;24.73;17.10;;;;;;;;;;5030634;28;20405;-64
2021/09/24 00:49:56;;;;;;;23.38;18.20;;;;;;;;;;5012959;28;20025;-64
2021/09/24 00:52:22;;;;;;;21.15;18.30;;;;;;;;;;5030910;28;20521;-64
2021/09/24 00:54:49;;;;;;;26.52;18.10;;;;;;;;;;5030588;28;20104;-63
2021/09/24 00:57:16;;;;;;;23.70;18.20;;;;;;;;;;5013270;28;20025;-64
2021/09/24 00:59:42;;;;;;;22.70;17.20;;;;;;;;;;5030660;28;20113;-64
2021/09/24 01:02:08;;;;;;;23.70;17.45;;;;;;;;;;5013199;28;20117;-64
2021/09/24 01:04:34;;;;;;;21.77;17.30;;;;;;;;;;5030906;28;20453;-64
2021/09/24 01:07:00;;;;;;;23.50;17.92;;;;;;;;;;5030907;28;20374;-64
2021/09/24 01:09:26;;;;;;;23.73;17.10;;;;;;;;;;5030452;28;20025;-64
2021/09/24 01:11:52;;;;;;;21.52;17.15;;;;;;;;;;5031005;28;20022;-64
2021/09/24 01:14:19;;;;;;;24.23;18.50;;;;;;;;;;5030670;28;20026;-63
2021/09/24 01:16:45;;;;;;;24.13;17.80;;;;;;;;;;5030904;28;20085;-64
2021/09/24 01:19:11;;;;;;;20.40;17.35;;;;;;;;;;5013087;28;20445;-64
2021/09/24 01:21:41;;;;;;;25.33;18.48;;;;;;;;;;5013037;28;20377;-64
2021/09/24 01:24:08;;;;;;;28.50;18.10;;;;;;;;;;5012878;28;20052;-64
2021/09/24 01:26:33;;;;;;;28.73;17.85;;;;;;;;;;5012939;28;20032;-63
2021/09/24 01:29:00;;;;;;;22.13;17.33;;;;;;;;;;5012711;28;20033;-64
2021/09/24 01:31:26;;;;;;;25.65;17.92;;;;;;;;;;5012951;28;20484;-63
2021/09/24 01:33:52;;;;;;;25.35;18.33;;;;;;;;;;5030580;28;20033;-64
2021/09/24 01:36:19;;;;;;;24.13;17.60;;;;;;;;;;5030553;28;20080;-63
2021/09/24 01:38:45;;;;;;;21.98;17.23;;;;;;;;;;5030329;28;20189;-64
2021/09/24 01:41:11;;;;;;;23.10;17.90;;;;;;;;;;5012887;28;20174;-63
2021/09/24 01:43:37;;;;;;;27.52;17.65;;;;;;;;;;5030589;28;20029;-64
2021/09/24 01:46:03;;;;;;;22.25;17.50;;;;;;;;;;5030545;28;20032;-63
2021/09/24 01:48:29;;;;;;;27.17;18.38;;;;;;;;;;5030318;28;20119;-64
2021/09/24 01:50:55;;;;;;;23.40;18.38;;;;;;;;;;5030425;28;20382;-63
2021/09/24 01:53:21;;;;;;;22.67;17.73;;;;;;;;;;5030436;28;20041;-63
2021/09/24 01:55:47;;;;;;;26.13;19.45;;;;;;;;;;5012666;28;20087;-64
2021/09/24 01:58:13;;;;;;;26.13;19.92;;;;;;;;;;5031086;28;20026;-64
2021/09/24 02:00:40;;;;;;;28.40;19.13;;;;;;;;;;5033959;28;20018;-64
2021/09/24 02:03:06;;;;;;;22.98;18.60;;;;;;;;;;5033481;28;20057;-64
2021/09/24 02:05:32;;;;;;;31.27;21.10;;;;;;;;;;5033786;28;20484;-62
2021/09/24 02:07:58;;;;;;;29.30;20.02;;;;;;;;;;5033677;28;20025;-64
2021/09/24 02:10:24;;;;;;;25.25;20.20;;;;;;;;;;5033562;28;20060;-64
2021/09/24 02:12:50;;;;;;;25.63;19.23;;;;;;;;;;5033606;28;20037;-64
2021/09/24 02:15:16;;;;;;;25.42;19.85;;;;;;;;;;5033617;28;20029;-64
2021/09/24 02:17:42;;;;;;;23.33;20.00;;;;;;;;;;5033449;28;20034;-64
2021/09/24 02:20:09;;;;;;;27.63;19.85;;;;;;;;;;5033473;28;20040;-64
2021/09/24 02:22:35;;;;;;;29.80;19.38;;;;;;;;;;5033307;28;20026;-64
2021/09/24 02:25:01;;;;;;;24.35;20.08;;;;;;;;;;5033483;28;20025;-64
2021/09/24 02:27:27;;;;;;;28.85;21.52;;;;;;;;;;5033362;28;20031;-63
2021/09/24 02:29:53;;;;;;;25.10;19.63;;;;;;;;;;5015595;28;20556;-64
2021/09/24 02:32:19;;;;;;;25.92;19.35;;;;;;;;;;5015870;28;20029;-64
2021/09/24 02:34:45;;;;;;;25.73;20.08;;;;;;;;;;5015708;28;20025;-64
2021/09/24 02:37:11;;;;;;;23.33;20.08;;;;;;;;;;5015732;28;20063;-64
2021/09/24 02:39:37;;;;;;;31.90;20.38;;;;;;;;;;5015167;28;20025;-64
2021/09/24 02:42:03;;;;;;;27.35;20.38;;;;;;;;;;5033218;28;20477;-63
2021/09/24 02:44:29;;;;;;;25.23;20.27;;;;;;;;;;5033069;28;20026;-63
2021/09/24 02:46:55;;;;;;;23.98;19.95;;;;;;;;;;5032967;28;20029;-64
2021/09/24 02:49:21;;;;;;;29.73;19.80;;;;;;;;;;5015094;28;20026;-64
2021/09/24 02:51:47;;;;;;;24.65;20.75;;;;;;;;;;5015171;28;20044;-63
2021/09/24 02:54:13;;;;;;;24.10;19.38;;;;;;;;;;5032652;28;20104;-64
2021/09/24 02:56:39;;;;;;;28.00;19.67;;;;;;;;;;5014986;28;20379;-64
2021/09/24 02:59:05;;;;;;;26.00;19.42;;;;;;;;;;5014829;28;20026;-64
2021/09/24 03:01:31;;;;;;;28.45;19.23;;;;;;;;;;5015326;28;20459;-64
2021/09/24 03:03:57;;;;;;;24.75;19.83;;;;;;;;;;5033104;28;20113;-64
2021/09/24 03:06:25;;;;;;;24.90;20.52;;;;;;;;;;5032952;28;20104;-63
2021/09/24 03:08:51;;;;;;;24.40;20.23;;;;;;;;;;5031874;28;20028;-64
2021/09/24 03:11:17;;;;;;;31.10;20.73;;;;;;;;;;5032436;28;20104;-64
2021/09/24 03:13:44;;;;;;;27.67;20.98;;;;;;;;;;5032365;28;20087;-64
2021/09/24 03:16:10;;;;;;;25.67;21.15;;;;;;;;;;5014634;28;20049;-64
2021/09/24 03:18:36;;;;;;;26.00;20.63;;;;;;;;;;5014562;28;20172;-64
2021/09/24 03:21:02;;;;;;;28.85;21.75;;;;;;;;;;5014811;28;20079;-63
2021/09/24 03:23:28;;;;;;;30.25;22.75;;;;;;;;;;5032388;28;20036;-64
2021/09/24 03:25:55;;;;;;;31.05;21.52;;;;;;;;;;5031943;28;20025;-64
2021/09/24 03:28:21;;;;;;;28.42;22.30;;;;;;;;;;5032194;28;20354;-63
2021/09/24 03:30:47;;;;;;;32.88;23.52;;;;;;;;;;5032315;28;20370;-64
2021/09/24 03:33:13;;;;;;;27.85;21.45;;;;;;;;;;5032091;28;20041;-63
2021/09/24 03:35:39;;;;;;;30.08;22.67;;;;;;;;;;5014355;28;20433;-64
2021/09/24 03:38:05;;;;;;;30.77;22.38;;;;;;;;;;5032054;28;20022;-64
2021/09/24 03:40:31;;;;;;;29.02;22.35;;;;;;;;;;5014431;28;20116;-64
2021/09/24 03:42:58;;;;;;;29.55;22.48;;;;;;;;;;5014299;28;20029;-64
2021/09/24 03:45:24;;;;;;;29.85;23.67;;;;;;;;;;5031821;28;20028;-64
2021/09/24 03:47:50;;;;;;;31.38;23.88;;;;;;;;;;5031714;28;20089;-64
2021/09/24 03:50:16;;;;;;;30.02;24.25;;;;;;;;;;5031356;28;20025;-64
2021/09/24 03:52:43;;;;;;;34.10;24.60;;;;;;;;;;5031699;28;20052;-64
2021/09/24 03:55:09;;;;;;;33.58;25.27;;;;;;;;;;5013846;28;20069;-64
2021/09/24 03:57:36;;;;;;;33.92;26.10;;;;;;;;;;5031854;28;20061;-64
2021/09/24 04:00:02;;;;;;;29.27;25.08;;;;;;;;;;5013880;28;20032;-64
2021/09/24 04:02:28;;;;;;;28.58;24.85;;;;;;;;;;5031938;28;20025;-64
2021/09/24 04:04:54;;;;;;;35.33;25.30;;;;;;;;;;5013992;28;20449;-64
2021/09/24 04:07:20;;;;;;;37.05;25.45;;;;;;;;;;5031781;28;20052;-64
2021/09/24 04:09:46;;;;;;;33.78;25.48;;;;;;;;;;5031032;28;20527;-64
2021/09/24 04:12:12;;;;;;;32.45;25.90;;;;;;;;;;5031388;28;20106;-64
2021/09/24 04:14:38;;;;;;;33.78;24.73;;;;;;;;;;5013583;28;20438;-64
2021/09/24 04:17:04;;;;;;;35.65;26.40;;;;;;;;;;5031246;28;20043;-63
2021/09/24 04:19:30;;;;;;;32.40;27.08;;;;;;;;;;5013037;28;20037;-63
2021/09/24 04:21:56;;;;;;;36.25;27.13;;;;;;;;;;5030621;28;20079;-64
2021/09/24 04:24:22;;;;;;;30.15;24.80;;;;;;;;;;5031159;28;20489;-64
2021/09/24 04:26:48;;;;;;;36.97;25.80;;;;;;;;;;5013318;28;20025;-63
2021/09/24 04:29:14;;;;;;;39.78;28.45;;;;;;;;;;5013151;28;20021;-64
2021/09/24 04:31:40;;;;;;;32.65;26.33;;;;;;;;;;5031081;28;20497;-64
2021/09/24 04:34:08;;;;;;;31.80;25.38;;;;;;;;;;5031394;28;20025;-64
2021/09/24 04:36:34;;;;;;;35.60;26.25;;;;;;;;;;5031024;28;20485;-64
2021/09/24 04:39:02;;;;;;;36.05;26.33;;;;;;;;;;5013111;28;20124;-64
2021/09/24 04:41:28;;;;;;;41.50;27.90;;;;;;;;;;5013363;28;20442;-64
2021/09/24 04:43:54;;;;;;;33.90;26.42;;;;;;;;;;5031087;28;20025;-63
2021/09/24 04:46:20;;;;;;;35.05;27.35;;;;;;;;;;5030860;28;20030;-63
2021/09/24 04:48:46;;;;;;;31.25;25.38;;;;;;;;;;5013058;28;20029;-64
2021/09/24 04:51:12;;;;;;;32.75;25.33;;;;;;;;;;5013186;28;20030;-63
2021/09/24 04:53:38;;;;;;;35.10;27.02;;;;;;;;;;5012877;28;20029;-64
2021/09/24 04:56:04;;;;;;;33.28;26.38;;;;;;;;;;5072290;22;20056;-62
2021/09/24 04:58:30;;;;;;;31.77;26.25;;;;;;;;;;5050895;28;20048;-63
2021/09/24 05:00:56;;;;;;;31.33;25.42;;;;;;;;;;5033935;28;20029;-63
2021/09/24 05:03:22;;;;;;;31.52;25.27;;;;;;;;;;5051947;28;20024;-61
2021/09/24 05:05:48;;;;;;;38.42;26.55;;;;;;;;;;5035985;28;20032;-63
2021/09/24 05:08:14;;;;;;;32.78;24.13;;;;;;;;;;5040651;28;20067;-61
2021/09/24 05:10:40;;;;;;;33.55;24.65;;;;;;;;;;5051693;28;20491;-62
2021/09/24 05:13:06;;;;;;;31.88;25.92;;;;;;;;;;5033538;28;20448;-61
2021/09/24 05:15:33;;;;;;;33.25;25.63;;;;;;;;;;5051481;28;20147;-62
2021/09/24 05:17:59;;;;;;;31.67;24.02;;;;;;;;;;5051702;28;20021;-61
2021/09/24 05:20:26;;;;;;;37.15;25.77;;;;;;;;;;5033701;28;20025;-63
2021/09/24 05:22:52;;;;;;;40.03;25.10;;;;;;;;;;5033861;28;20497;-63
2021/09/24 05:25:19;;;;;;;29.75;24.95;;;;;;;;;;5034787;28;20055;-62
2021/09/24 05:27:45;;;;;;;34.13;25.15;;;;;;;;;;5051542;28;20029;-62
2021/09/24 05:30:11;;;;;;;32.75;25.02;;;;;;;;;;5051303;28;20075;-63
2021/09/24 05:32:37;;;;;;;36.88;25.52;;;;;;;;;;5053236;28;20029;-61
2021/09/24 05:35:03;;;;;;;34.95;25.65;;;;;;;;;;5055180;28;20025;-58
2021/09/24 05:37:30;;;;;;;33.35;25.23;;;;;;;;;;5036894;28;20022;-63
2021/09/24 05:39:57;;;;;;;33.95;25.67;;;;;;;;;;5054735;28;20021;-64
2021/09/24 05:42:23;;;;;;;35.67;26.50;;;;;;;;;;5037086;28;20045;-62
2021/09/24 05:44:49;;;;;;;36.17;25.65;;;;;;;;;;5054937;28;20043;-63
2021/09/24 05:47:15;;;;;;;36.65;27.58;;;;;;;;;;5036983;28;20119;-62
2021/09/24 05:49:41;;;;;;;40.53;28.58;;;;;;;;;;5055058;28;20029;-57
2021/09/24 05:52:07;;;;;;;35.72;28.00;;;;;;;;;;5036477;28;20124;-58
2021/09/24 05:54:33;;;;;;;39.85;28.52;;;;;;;;;;5036393;28;20029;-63
2021/09/24 05:56:59;;;;;;;38.95;28.30;;;;;;;;;;5053822;28;20021;-62
2021/09/24 05:59:25;;;;;;;39.45;29.15;;;;;;;;;;5035910;28;20020;-64
2021/09/24 06:01:51;;;;;;;37.03;26.25;;;;;;;;;;5036242;28;20206;-61
2021/09/24 06:04:18;;;;;;;37.75;27.77;;;;;;;;;;5033624;28;20237;-63
2021/09/24 06:06:44;;;;;;;40.10;28.80;;;;;;;;;;5053312;28;20017;-62
2021/09/24 06:09:10;;;;;;;46.55;30.65;;;;;;;;;;5035708;28;20392;-63
2021/09/24 06:11:36;;;;;;;40.63;30.05;;;;;;;;;;5035978;28;20025;-62
2021/09/24 06:14:03;;;;;;;37.85;29.02;;;;;;;;;;5036045;28;20469;-62
2021/09/24 06:16:29;;;;;;;41.03;29.10;;;;;;;;;;5036101;28;20021;-62
2021/09/24 06:18:55;;;;;;;37.13;29.08;;;;;;;;;;5053743;28;20036;-63
2021/09/24 06:21:21;;;;;;;46.33;30.13;;;;;;;;;;5053502;28;20021;-59
2021/09/24 06:23:48;;;;;;;40.97;30.95;;;;;;;;;;5053793;28;20025;-61
2021/09/24 06:26:14;;;;;;;46.38;32.00;;;;;;;;;;5035361;28;20144;-61
2021/09/24 06:28:40;;;;;;;42.85;31.35;;;;;;;;;;5053692;28;20393;-62
2021/09/24 06:31:06;;;;;;;42.75;31.88;;;;;;;;;;5053879;28;20040;-63
2021/09/24 06:33:32;;;;;;;45.70;32.92;;;;;;;;;;5053961;28;20171;-61
2021/09/24 06:35:58;;;;;;;45.90;31.70;;;;;;;;;;5054112;28;20057;-63
2021/09/24 06:38:25;;;;;;;49.58;34.40;;;;;;;;;;5053253;28;20057;-63
2021/09/24 06:40:51;;;;;;;47.10;34.00;;;;;;;;;;5053390;28;20493;-62
2021/09/24 06:43:17;;;;;;;42.65;31.30;;;;;;;;;;5035110;28;20029;-62
2021/09/24 06:45:44;;;;;;;50.95;35.63;;;;;;;;;;5053253;28;20480;-63
2021/09/24 06:48:10;;;;;;;48.28;35.05;;;;;;;;;;5053637;28;20412;-58
2021/09/24 06:50:36;;;;;;;49.42;34.72;;;;;;;;;;5054040;28;20025;-58
2021/09/24 06:53:02;;;;;;;43.35;30.17;;;;;;;;;;5035900;28;20120;-64
2021/09/24 06:55:29;;;;;;;47.70;33.03;;;;;;;;;;5035831;28;20102;-63
2021/09/24 06:57:55;;;;;;;45.33;32.22;;;;;;;;;;5054257;28;20028;-63
2021/09/24 07:00:22;;;;;;;47.55;32.58;;;;;;;;;;5054536;28;20092;-56
2021/09/24 07:02:48;;;;;;;43.55;32.85;;;;;;;;;;5054305;28;20025;-62
2021/09/24 07:05:14;;;;;;;50.38;36.17;;;;;;;;;;5053585;28;20472;-61
2021/09/24 07:07:44;;;;;;;45.17;34.45;;;;;;;;;;5050139;28;20029;-63
2021/09/24 07:10:11;;;;;;;49.95;34.60;;;;;;;;;;5033506;28;20559;-62
2021/09/24 07:12:37;;;;;;;48.78;33.88;;;;;;;;;;5015666;28;20044;-62
2021/09/24 07:15:03;;;;;;;46.85;33.42;;;;;;;;;;5033434;28;20075;-60
2021/09/24 07:17:29;;;;;;;50.55;34.03;;;;;;;;;;5015590;28;20032;-63
2021/09/24 07:19:56;;;;;;;46.30;35.17;;;;;;;;;;5033162;28;20026;-62
2021/09/24 07:22:22;;;;;;;45.72;34.75;;;;;;;;;;5033592;28;20026;-61
2021/09/24 07:24:50;;;;;;;48.47;33.60;;;;;;;;;;5033276;28;20022;-62
2021/09/24 07:27:16;;;;;;;49.15;33.67;;;;;;;;;;5015417;28;20033;-61
2021/09/24 07:29:42;;;;;;;43.25;30.45;;;;;;;;;;5032654;28;20028;-63
2021/09/24 07:32:08;;;;;;;45.38;32.65;;;;;;;;;;5052624;28;20473;-63
2021/09/24 07:34:34;;;;;;;46.35;35.05;;;;;;;;;;5035048;28;20138;-60
2021/09/24 07:37:00;;;;;;;45.63;33.63;;;;;;;;;;5052374;28;20025;-60
2021/09/24 07:39:26;;;;;;;52.13;34.00;;;;;;;;;;5052376;28;20111;-58
2021/09/24 07:41:52;;;;;;;46.47;32.25;;;;;;;;;;5034864;28;20021;-60
2021/09/24 07:44:18;;;;;;;48.30;33.17;;;;;;;;;;5052795;28;20040;-58
2021/09/24 07:46:47;;;;;;;45.92;31.33;;;;;;;;;;5052738;28;20036;-61
2021/09/24 07:49:13;;;;;;;48.80;33.85;;;;;;;;;;5052276;28;20025;-61
2021/09/24 07:51:39;;;;;;;44.42;34.42;;;;;;;;;;5052580;28;20028;-61
2021/09/24 07:54:05;;;;;;;47.22;34.28;;;;;;;;;;5052479;28;20083;-60
2021/09/24 07:56:31;;;;;;;49.20;36.33;;;;;;;;;;5051531;28;20405;-60
2021/09/24 07:58:57;;;;;;;51.53;35.88;;;;;;;;;;5052349;28;20021;-60
2021/09/24 08:01:25;;;;;;;52.38;35.80;;;;;;;;;;5052379;28;20039;-57
2021/09/24 08:03:51;;;;;;;55.17;36.60;;;;;;;;;;5051746;28;20048;-60
2021/09/24 08:06:19;;;;;;;54.40;36.88;;;;;;;;;;5052352;28;20025;-61
2021/09/24 08:08:45;;;;;;;56.85;38.42;;;;;;;;;;5040094;28;20041;-59
2021/09/24 08:11:12;;;;;;;63.55;40.63;;;;;;;;;;5015219;28;20038;-61
2021/09/24 08:13:38;;;;;;;57.83;39.17;;;;;;;;;;5015068;28;20337;-68
2021/09/24 08:16:04;;;;;;;64.13;40.67;;;;;;;;;;5033461;28;20085;-66
2021/09/24 08:18:30;;;;;;;62.88;39.67;;;;;;;;;;5033141;28;20075;-68
2021/09/24 08:20:59;;;;;;;70.95;43.30;;;;;;;;;;5015466;28;20033;-67
2021/09/24 08:23:25;;;;;;;73.15;44.13;;;;;;;;;;5037126;28;20017;-67
2021/09/24 08:25:51;;;;;;;73.55;42.90;;;;;;;;;;5035503;28;20035;-66
2021/09/24 08:28:17;;;;;;;75.32;46.47;;;;;;;;;;5035290;28;20047;-68
2021/09/24 08:30:43;;;;;;;73.10;43.55;;;;;;;;;;5052775;28;20024;-68
2021/09/24 08:33:09;;;;;;;83.50;44.95;;;;;;;;;;5052869;28;20032;-67
2021/09/24 08:35:35;;;;;;;75.40;44.97;;;;;;;;;;5034744;28;20017;-68
2021/09/24 08:38:01;;;;;;;82.13;46.45;;;;;;;;;;5035658;28;20067;-68
2021/09/24 08:40:30;;;;;;;86.05;45.72;;;;;;;;;;5034883;28;20033;-68
2021/09/24 08:42:56;;;;;;;89.50;47.72;;;;;;;;;;5052973;28;20085;-69
2021/09/24 08:45:23;;;;;;;79.28;42.00;;;;;;;;;;5053374;28;20104;-67
2021/09/24 08:48:00;;;;;;;92.18;47.22;;;;;;;;;;5036023;28;20473;-68
2021/09/24 08:50:27;;;;;;;93.93;47.47;;;;;;;;;;5053823;28;20123;-68
2021/09/24 08:52:53;;;;;;;79.60;45.58;;;;;;;;;;5053610;28;20041;-69
2021/09/24 08:55:19;;;;;;;91.75;49.60;;;;;;;;;;5053095;28;20116;-68
2021/09/24 08:57:46;;;;;;;82.55;43.10;;;;;;;;;;5052599;28;20420;-68
2021/09/24 09:00:12;;;;;;;79.97;45.25;;;;;;;;;;5034949;28;20021;-68
2021/09/24 09:02:55;;;;;;;70.95;39.53;;;;;;;;;;5034437;28;20140;-67
2021/09/24 09:05:21;;;;;;;78.38;43.67;;;;;;;;;;5030828;28;20031;-67
2021/09/24 09:07:47;;;;;;;84.50;43.42;;;;;;;;;;5034944;28;20484;-69
2021/09/24 09:10:14;;;;;;;85.30;43.72;;;;;;;;;;5055701;28;20025;-66
2021/09/24 09:12:40;;;;;;;82.32;44.28;;;;;;;;;;5056028;28;20029;-69
2021/09/24 09:15:08;;;;;;;78.40;42.38;;;;;;;;;;5038646;28;20107;-68
2021/09/24 09:17:36;;;;;;;72.57;39.75;;;;;;;;;;5041909;28;20036;-68
2021/09/24 09:20:09;;;;;;;64.20;36.08;;;;;;;;;;5057190;28;20393;-65
2021/09/24 09:22:36;;;;;;;68.97;38.35;;;;;;;;;;5056599;28;20032;-68
2021/09/24 09:25:04;;;;;;;75.07;41.47;;;;;;;;;;5038392;28;20033;-68
2021/09/24 09:27:30;;;;;;;63.60;35.20;;;;;;;;;;5056385;28;20547;-68
2021/09/24 09:29:57;;;;;;;57.85;33.33;;;;;;;;;;5038245;28;20043;-68
2021/09/24 09:32:24;;;;;;;57.20;36.22;;;;;;;;;;5056167;28;20078;-68
2021/09/24 09:34:50;;;;;;;62.03;34.75;;;;;;;;;;5056174;28;20021;-67
2021/09/24 09:37:17;;;;;;;63.17;35.53;;;;;;;;;;5056353;28;20090;-66
2021/09/24 09:39:43;;;;;;;47.13;31.15;;;;;;;;;;5038608;28;20036;-64
2021/09/24 09:42:09;;;;;;;53.55;34.38;;;;;;;;;;5038733;28;20068;-67
2021/09/24 09:44:38;;;;;;;48.50;29.23;;;;;;;;;;5055475;28;20036;-67
2021/09/24 09:47:04;;;;;;;45.50;28.75;;;;;;;;;;5055643;28;20044;-66
2021/09/24 09:49:30;;;;;;;51.33;30.92;;;;;;;;;;5055958;28;20021;-66
2021/09/24 09:52:12;;;;;;;45.53;29.10;;;;;;;;;;5055641;28;20031;-66
2021/09/24 09:54:38;;;;;;;47.15;31.88;;;;;;;;;;5037730;28;20036;-67
2021/09/24 09:57:19;;;;;;;46.05;30.58;;;;;;;;;;5055798;28;20025;-58
2021/09/24 09:59:55;;;;;;;49.05;31.98;;;;;;;;;;5054659;28;20021;-64
2021/09/24 10:02:22;;;;;;;48.15;30.45;;;;;;;;;;5054862;28;20382;-63
2021/09/24 10:04:53;;;;;;;48.78;31.15;;;;;;;;;;5036770;28;20021;-64
2021/09/24 10:07:20;;;;;;;48.17;29.70;;;;;;;;;;5036830;28;20048;-63
2021/09/24 10:09:47;;;;;;;45.60;29.88;;;;;;;;;;5035136;28;20043;-62
2021/09/24 10:12:19;;;;;;;45.80;30.45;;;;;;;;;;5034567;28;20121;-63
2021/09/24 10:14:45;;;;;;;43.50;28.67;;;;;;;;;;5034776;28;20026;-60
2021/09/24 10:17:11;;;;;;;45.78;28.60;;;;;;;;;;5035604;28;20100;-63
2021/09/24 10:19:37;;;;;;;44.00;29.63;;;;;;;;;;5033318;28;20027;-62
2021/09/24 10:22:03;;;;;;;46.72;29.55;;;;;;;;;;5016915;28;20026;-54
2021/09/24 10:24:29;;;;;;;45.53;29.63;;;;;;;;;;5034453;28;20439;-61
2021/09/24 10:26:57;;;;;;;41.90;26.60;;;;;;;;;;5016374;28;20124;-64
2021/09/24 10:29:26;;;;;;;45.80;26.50;;;;;;;;;;5000220;28;20044;-64
2021/09/24 10:31:52;;;;;;;44.13;27.27;;;;;;;;;;5034125;28;20083;-56
2021/09/24 10:34:19;;;;;;;43.25;28.45;;;;;;;;;;5034238;28;20470;-65
2021/09/24 10:36:49;;;;;;;39.17;24.20;;;;;;;;;;5034444;28;20080;-65
2021/09/24 10:39:30;;;;;;;43.13;25.92;;;;;;;;;;5034019;28;20060;-62
2021/09/24 10:42:15;;;;;;;43.72;27.73;;;;;;;;;;5033999;28;20103;-65
2021/09/24 10:44:56;;;;;;;41.13;26.33;;;;;;;;;;5015390;28;20113;-62
2021/09/24 10:47:41;;;;;;;35.88;23.25;;;;;;;;;;5016705;28;20029;-63
2021/09/24 10:50:27;;;;;;;37.25;23.38;;;;;;;;;;5033183;28;20496;-64
2021/09/24 10:53:16;;;;;;;36.95;22.30;;;;;;;;;;5002903;28;20037;-64
2021/09/24 10:55:54;;;;;;;36.67;23.73;;;;;;;;;;5057621;22;20668;-60
2021/09/24 10:58:29;;;;;;;36.55;23.17;;;;;;;;;;5033455;28;20025;-60
2021/09/24 11:01:06;;;;;;;32.67;21.00;;;;;;;;;;5034006;28;20029;-61
2021/09/24 11:03:33;;;;;;;35.45;23.20;;;;;;;;;;5052327;28;20036;-58
2021/09/24 11:06:01;;;;;;;33.90;22.20;;;;;;;;;;5039501;28;20095;-62
2021/09/24 11:08:36;;;;;;;34.28;21.20;;;;;;;;;;5013839;28;20404;-61
2021/09/24 11:11:22;;;;;;;31.95;21.38;;;;;;;;;;5031889;28;20026;-61
2021/09/24 11:13:49;;;;;;;31.55;19.77;;;;;;;;;;5045646;28;20025;-58
2021/09/24 11:16:16;;;;;;;32.70;21.13;;;;;;;;;;5033564;28;20027;-61
2021/09/24 11:18:48;;;;;;;30.08;19.75;;;;;;;;;;5051159;28;20380;-59
2021/09/24 11:21:15;;;;;;;29.42;18.85;;;;;;;;;;5033741;28;20112;-58
2021/09/24 11:23:41;;;;;;;28.73;17.50;;;;;;;;;;5052277;28;20122;-60
2021/09/24 11:26:09;;;;;;;31.73;19.70;;;;;;;;;;5050698;28;20051;-62
2021/09/24 11:28:35;;;;;;;32.33;21.95;;;;;;;;;;5050988;28;20489;-63
2021/09/24 11:31:01;;;;;;;30.85;21.25;;;;;;;;;;5050621;28;20068;-61
2021/09/24 11:33:45;;;;;;;34.63;22.35;;;;;;;;;;5033109;28;20048;-61
2021/09/24 11:36:13;;;;;;;34.92;21.13;;;;;;;;;;5052053;28;20072;-64
2021/09/24 11:38:39;;;;;;;32.25;20.70;;;;;;;;;;5051191;28;20043;-62
2021/09/24 11:41:05;;;;;;;28.83;18.83;;;;;;;;;;5050284;28;20029;-63
2021/09/24 11:43:33;;;;;;;31.92;21.13;;;;;;;;;;5050959;28;20021;-61
2021/09/24 11:46:01;;;;;;;33.22;22.55;;;;;;;;;;5031541;28;20016;-62
2021/09/24 11:48:29;;;;;;;33.42;21.33;;;;;;;;;;5031953;28;20048;-62
2021/09/24 11:50:55;;;;;;;33.83;22.35;;;;;;;;;;5050421;28;20032;-61
2021/09/24 11:53:22;;;;;;;34.28;24.00;;;;;;;;;;5051261;28;20103;-62
2021/09/24 11:55:48;;;;;;;36.00;24.30;;;;;;;;;;5032921;28;20032;-62
2021/09/24 11:58:17;;;;;;;34.90;23.80;;;;;;;;;;5032690;28;20074;-62
2021/09/24 12:00:50;;;;;;;33.75;23.40;;;;;;;;;;5050795;28;20051;-62
2021/09/24 12:03:24;;;;;;;37.42;24.63;;;;;;;;;;5050552;28;20656;-64
2021/09/24 12:05:50;;;;;;;37.97;24.80;;;;;;;;;;5033253;28;20029;-62
2021/09/24 12:08:17;;;;;;;36.85;24.23;;;;;;;;;;5024351;28;20083;-62
2021/09/24 12:10:43;;;;;;;38.05;26.13;;;;;;;;;;5031649;28;20424;-62
2021/09/24 12:13:16;;;;;;;36.17;25.08;;;;;;;;;;5031127;28;20065;-62
2021/09/24 12:16:09;;;;;;;35.85;26.75;;;;;;;;;;5038828;28;20104;-63
2021/09/24 12:18:45;;;;;;;38.47;26.80;;;;;;;;;;5046944;28;20438;-63
2021/09/24 12:21:12;;;;;;;34.53;24.73;;;;;;;;;;5050786;28;20032;-63
2021/09/24 12:23:38;;;;;;;36.08;26.17;;;;;;;;;;5050915;28;20025;-62
2021/09/24 12:26:05;;;;;;;32.33;24.80;;;;;;;;;;5050871;28;20078;-61
2021/09/24 12:28:31;;;;;;;35.05;24.65;;;;;;;;;;5032710;28;20116;-61
2021/09/24 12:30:58;;;;;;;35.35;25.73;;;;;;;;;;5051113;28;20025;-63
2021/09/24 12:33:24;;;;;;;34.40;25.55;;;;;;;;;;5032593;28;20028;-63
2021/09/24 12:36:05;;;;;;;37.65;25.42;;;;;;;;;;5050551;28;20162;-61
2021/09/24 12:38:32;;;;;;;39.47;28.50;;;;;;;;;;5050197;28;20186;-60
2021/09/24 12:41:09;;;;;;;37.75;28.63;;;;;;;;;;5050347;28;20048;-60
2021/09/24 12:43:35;;;;;;;43.72;33.78;;;;;;;;;;5031686;28;20389;-61
2021/09/24 12:46:01;;;;;;;38.08;29.13;;;;;;;;;;5050412;28;20032;-61
2021/09/24 12:48:33;;;;;;;41.45;31.05;;;;;;;;;;5050118;28;20477;-61
2021/09/24 12:51:00;;;;;;;41.83;32.58;;;;;;;;;;5050016;28;20029;-60
2021/09/24 12:53:26;;;;;;;42.28;34.22;;;;;;;;;;5050190;28;20078;-61
2021/09/24 12:55:52;;;;;;;41.78;34.40;;;;;;;;;;5049781;28;20033;-61
2021/09/24 12:58:18;;;;;;;42.58;33.75;;;;;;;;;;5050184;28;20017;-60
2021/09/24 13:00:46;;;;;;;40.30;33.10;;;;;;;;;;5050235;28;20032;-61
2021/09/24 13:03:12;;;;;;;39.20;29.75;;;;;;;;;;5050364;28;20053;-61
2021/09/24 13:05:38;;;;;;;43.50;32.90;;;;;;;;;;5049928;28;20481;-59
2021/09/24 13:08:04;;;;;;;39.30;28.48;;;;;;;;;;5043295;28;20481;-61
2021/09/24 13:10:30;;;;;;;40.50;31.73;;;;;;;;;;5012433;28;20094;-61
2021/09/24 13:12:58;;;;;;;38.50;29.98;;;;;;;;;;5013041;28;20451;-56
2021/09/24 13:15:24;;;;;;;38.88;30.23;;;;;;;;;;5027224;28;20044;-60
2021/09/24 13:17:51;;;;;;;37.42;30.27;;;;;;;;;;5026758;28;20025;-60
2021/09/24 13:20:17;;;;;;;38.03;29.48;;;;;;;;;;5026520;28;20378;-60
2021/09/24 13:22:43;;;;;;;34.72;28.85;;;;;;;;;;5027294;28;20045;-60
2021/09/24 13:25:10;;;;;;;32.22;26.63;;;;;;;;;;5026739;28;20110;-60
2021/09/24 13:27:37;;;;;;;33.80;28.35;;;;;;;;;;5008838;28;20120;-54
2021/09/24 13:30:07;;;;;;;28.30;24.00;;;;;;;;;;5026368;28;20076;-60
2021/09/24 13:32:33;;;;;;;30.17;24.95;;;;;;;;;;5026548;28;20037;-60
2021/09/24 13:34:59;;;;;;;27.83;22.98;;;;;;;;;;5026655;28;20115;-60
2021/09/24 13:37:25;;;;;;;28.38;23.75;;;;;;;;;;5008986;28;20127;-60
2021/09/24 13:39:50;;;;;;;29.95;21.90;;;;;;;;;;5026380;28;20381;-60
2021/09/24 13:42:16;;;;;;;29.27;24.27;;;;;;;;;;5008464;28;20036;-58
2021/09/24 13:44:43;;;;;;;27.48;21.00;;;;;;;;;;5026629;28;20481;-60
2021/09/24 13:47:09;;;;;;;26.55;21.08;;;;;;;;;;5026135;28;20036;-63
2021/09/24 13:49:35;;;;;;;28.17;22.08;;;;;;;;;;5026352;28;20029;-61
2021/09/24 13:52:01;;;;;;;26.67;21.35;;;;;;;;;;5008841;28;20041;-61
2021/09/24 13:54:27;;;;;;;25.90;20.40;;;;;;;;;;5029707;28;20026;-62
2021/09/24 13:56:53;;;;;;;25.65;19.60;;;;;;;;;;5029192;28;20590;-62
2021/09/24 13:59:21;;;;;;;28.13;20.50;;;;;;;;;;5029858;28;20095;-59
2021/09/24 14:01:47;;;;;;;28.05;19.80;;;;;;;;;;5029561;28;20022;-60
2021/09/24 14:04:13;;;;;;;25.63;18.70;;;;;;;;;;5017070;28;20125;-54
2021/09/24 14:06:39;;;;;;;24.83;18.25;;;;;;;;;;5016262;28;20105;-60
2021/09/24 14:09:06;;;;;;;24.42;17.65;;;;;;;;;;5029997;28;20025;-58
2021/09/24 14:11:33;;;;;;;29.98;18.92;;;;;;;;;;5034341;28;20098;-60
2021/09/24 14:13:59;;;;;;;23.70;16.10;;;;;;;;;;5050036;28;20028;-60
2021/09/24 14:16:26;;;;;;;25.13;18.00;;;;;;;;;;5038628;28;20070;-61